Fort Lauderdale, FL (33304)

8:34 AM EDT on August 20, 2014 (GMT -0400)
River Reach in SW Ft. Lauderdale | Change Station
CLOSE
Current Station
Personal Weather Station
Location: Ft.Lauderdale, FL
Elevation: 74 ft
Nearby Weather Stations

Elev 74 ft 26.11 °N, 80.16 °W | Updated 45 seconds ago

Scattered Clouds
Scattered Clouds
84.5 °F
Feels Like 93 °F
N
1.0
Wind Variable Wind from WNW
Gusts 3.0 mph

Today
High -- | Low -- °F
--% Chance of Precip.
Yesterday
High -- | Low -- °F
Precip. -- in
6:55 AM 7:51 PM
Waning Crescent, 22% visible
Pressure 30.04 in
Visibility 10.0 miles
Clouds Few 2500 ft
Few 10000 ft
Scattered Clouds 25000 ft
Heat Index 93 °F
Dew Point 76 °F
Humidity 75%
Rainfall 0.00 in
Snow Depth Not available.
UV 1 out of 12
Pollen 4.80 out of 12
Air Quality Not available.
Flu Activity Not available.
METAR KFLL 201153Z 00000KT 10SM FEW025 FEW100 SCT250 29/24 A3004 RMK AO2 SLP173 T02940239 10294 20278 53018

More Conditions Fewer Conditions

Pressure 30.04 in
Visibility 10.0 miles
Clouds Few 2500 ft
Few 10000 ft
Scattered Clouds 25000 ft
Heat Index 93 °F
Dew Point 76 °F
Humidity 75%
Rainfall 0.00 in
Snow Depth Not available.
UV 1 out of 12
Pollen 4.80 out of 12
Air Quality Not available.
Flu Activity Not available.
METAR KFLL 201153Z 00000KT 10SM FEW025 FEW100 SCT250 29/24 A3004 RMK AO2 SLP173 T02940239 10294 20278 53018

More Conditions Fewer Conditions

10-Day Weather Forecast

Almanac

Astronomy

Aug. 20, 2014 Rise Set
Actual Time 6:55 AM EDT 7:51 PM EDT
Civil Twilight 6:31 AM EDT 8:15 PM EDT
Nautical Twilight 6:03 AM EDT 8:43 PM EDT
Astronomical Twilight 5:34 AM EDT 9:12 PM EDT
Moon 2:44 AM EDT 4:25 PM EDT
Length of Visible Light 13h 44m
Length of Day
12h 56m
Tomorrow will be 1m 23s shorter.
Waning Crescent, 22% of the Moon is Illuminated
Today
Waning Crescent
Aug 25
New
Sep 2
First Quarter
Sep 8
Full
Sep 15
Last Quarter

Today's Extremes

State Highs State Lows

Community

WunderPhotos

Upload Photos

1,745,618 photos uploaded!

Nearby

Air Quality

  Air Quality AQ Index Pollutant
Wednesday Moderate
PM2.5
Wednesday Good
OZONE
Thursday Moderate
PM2.5
Thursday Good
OZONE
Friday Good
OZONE
Friday Good
PM2.5
Saturday Good
OZONE
Saturday Good
PM2.5

Snow Depth

Station Depth Elevation
No new snow has been reported.

Earthquake Activity

City Distance Mag. Time & Date
No recent earthquake activity has been reported nearby.
Minimum magnitude displayed is 2.5.

Coastal Water Temperatures

Place Temperature
Virginia Key, FL 89.1 °F

Nearby Weather Stations